Accueil
METAR-TAF:

METAR-TAF

Aéroports :

Aéroport de Guernesey

Guernesey,

latitude: 49-26N, longitude: 002-36W, altitude: 102 m

Observation

Le bulletin a été fait il y a 19 minutes, à 14:20 UTC
Vent 5 kt de nord/nord-ouest, variant entre nord-ouest et nord/nord-est
Température 7°C
Humidité 76%
Pression 1038 hPa
Visibilité 10 km ou plus
Nuages fragmentés à une hauteur de 1800 ft

METAR: EGJB 221420Z 34005KT 310V030 9999 BKN018 07/03 Q1038

Heure: 14:39 (14:39 UTC)

Prévision

Le bulletin a été fait il y a 3 heures et 40 minutes, à 10:59 UTC
Prévision valable du 22 à 12 UTC au 22 à 21 UTC
Vent 6 kt de nord
Visibilité 10 km ou plus
Nuages fragmentés à une hauteur de 1800 ft

TAF: EGJB 221059Z 2212/2221 36006KT 9999 BKN018

Observations et prévisions météorologiques de plus de 4000 aéroports (messages METAR et TAF).

Les stations disponibles sont représentées par des disques jaunes et rouges sur la carte.

Passer la souris dessus pour voir le nom de la station.

Cliquer dessus pour voir les observations et prévisions météorologiques.

Pour changer de carte: cliquez sur les boutons verts avec une croix noire pour zoomer, sur le bouton vert avec un tiret pour effectuer un zoom arrière, ou sur les flèches vertes pour les cartes adjacentes.


METAR-TAF: